SILO ALERT LOG


Silo ID Alert Type Alert Message Silo Type Points Depth (mm) Strength Temperature (°C) Humidity (%) Height (mm) Volume (㎥) Weight (t) Flag Time
WJWJR05 Humidity 습도센서 측정값이 80% 초과 82 5340 2819 20.8 83.1 2389 270.203 170.823 0 2026-06-06 06:25:58.000
WJWJR01 Humidity 습도센서 측정값이 80% 초과 82 4663 1376 18.4 88.2 2976 336.633 212.819 0 2026-06-06 05:26:45.000
WJWJR05 Humidity 습도센서 측정값이 80% 초과 83 5319 2908 20.9 82.8 2410 272.595 172.335 0 2026-06-06 05:26:00.000
WJWJR01 Humidity 습도센서 측정값이 80% 초과 82 4672 1339 18.8 87.7 2967 335.657 212.202 0 2026-06-06 04:26:44.000
WJWJR05 Humidity 습도센서 측정값이 80% 초과 81 5315 2810 21.3 82.1 2414 273.111 172.661 0 2026-06-06 04:25:58.000
WJWJR01 Humidity 습도센서 측정값이 80% 초과 82 4675 1303 19.2 87 2964 335.309 211.982 0 2026-06-06 03:26:45.000
WJWJR05 Humidity 습도센서 측정값이 80% 초과 82 5328 2904 21.6 81.8 2401 271.575 171.69 0 2026-06-06 03:25:55.000
WJWJR05 Humidity 습도센서 측정값이 80% 초과 82 5335 2823 22 81.3 2394 270.772 171.182 0 2026-06-06 02:25:59.000
WJWJR01 Humidity 습도센서 측정값이 80% 초과 43 5673 1343 19.7 86.2 1966 222.459 140.639 0 2026-06-06 02:25:53.000
WJWJR01 Humidity 습도센서 측정값이 80% 초과 81 4660 1340 20.3 85.4 2979 336.976 213.036 0 2026-06-06 01:26:44.000
WJWJR05 Humidity 습도센서 측정값이 80% 초과 83 5242 2804 22.4 80.3 2487 281.341 177.864 0 2026-06-06 01:25:59.000
WJWJR01 Humidity 습도센서 측정값이 80% 초과 83 4636 1384 21 84.2 3003 339.698 214.757 0 2026-06-06 00:26:47.000
WJWJR01 Humidity 습도센서 측정값이 80% 초과 83 4672 1325 21.8 83.1 2967 335.652 212.199 0 2026-06-05 23:26:44.000
WJWJR01 Humidity 습도센서 측정값이 80% 초과 83 4626 1307 22.5 81.7 3013 340.825 215.47 0 2026-06-05 22:26:46.000
WJWJR05 Humidity 습도센서 측정값이 80% 초과 23 4612 2577 22.4 80.6 3117 352.54 222.876 0 2026-06-05 08:25:58.000
WJWJR01 Humidity 습도센서 측정값이 80% 초과 49 6726 1779 21.6 83.5 913 103.261 65.282 0 2026-06-05 08:25:49.000
WJWJR05 Humidity 습도센서 측정값이 80% 초과 80 5624 2371 22.4 80.9 2105 238.182 150.579 0 2026-06-05 07:25:53.000
WJWJR01 Humidity 습도센서 측정값이 80% 초과 48 6879 1830 21.4 84.1 760 86.047 54.399 0 2026-06-05 07:25:48.000
WJWJR05 Humidity 습도센서 측정값이 80% 초과 78 5716 2373 22.5 80.6 2013 227.693 143.947 0 2026-06-05 06:25:55.000
WJWJR01 Humidity 습도센서 측정값이 80% 초과 49 6743 1832 21.4 84.1 896 101.336 64.064 0 2026-06-05 06:25:47.000

[첫 페이지] [50] [51] [52] [53] 54 [55] [56] [57] [58] [마지막 페이지]